sensor_id;sensor_type;location;lat;lon;timestamp;temperature;humidity
3504;DHT22;1766;53.490;10.174;2022-08-19T00:01:39;27.40;50.60
3504;DHT22;1766;53.490;10.174;2022-08-19T00:03:42;27.40;50.60
3504;DHT22;1766;53.490;10.174;2022-08-19T00:05:43;27.40;50.50
3504;DHT22;1766;53.490;10.174;2022-08-19T00:07:47;27.40;50.40
3504;DHT22;1766;53.490;10.174;2022-08-19T00:09:51;27.40;50.40
3504;DHT22;1766;53.490;10.174;2022-08-19T00:11:54;27.40;50.40
3504;DHT22;1766;53.490;10.174;2022-08-19T00:13:56;27.40;50.50
3504;DHT22;1766;53.490;10.174;2022-08-19T00:15:59;27.40;50.30
3504;DHT22;1766;53.490;10.174;2022-08-19T00:18:01;27.30;50.20
3504;DHT22;1766;53.490;10.174;2022-08-19T00:20:03;27.40;50.10
3504;DHT22;1766;53.490;10.174;2022-08-19T00:22:07;27.30;50.30
3504;DHT22;1766;53.490;10.174;2022-08-19T00:24:12;27.30;50.20
3504;DHT22;1766;53.490;10.174;2022-08-19T00:26:15;27.10;50.20
3504;DHT22;1766;53.490;10.174;2022-08-19T00:28:16;27.10;50.20
3504;DHT22;1766;53.490;10.174;2022-08-19T00:30:18;27.20;50.40
3504;DHT22;1766;53.490;10.174;2022-08-19T00:32:20;27.10;50.40
3504;DHT22;1766;53.490;10.174;2022-08-19T00:34:23;27.20;50.50
3504;DHT22;1766;53.490;10.174;2022-08-19T00:36:38;27.20;50.50
3504;DHT22;1766;53.490;10.174;2022-08-19T00:38:40;27.20;50.20
3504;DHT22;1766;53.490;10.174;2022-08-19T00:40:45;27.30;50.30
3504;DHT22;1766;53.490;10.174;2022-08-19T00:42:47;27.20;50.20
3504;DHT22;1766;53.490;10.174;2022-08-19T00:44:49;27.30;50.30
3504;DHT22;1766;53.490;10.174;2022-08-19T00:46:53;27.30;50.20
3504;DHT22;1766;53.490;10.174;2022-08-19T00:48:56;27.20;50.30
3504;DHT22;1766;53.490;10.174;2022-08-19T00:50:59;27.20;50.30
3504;DHT22;1766;53.490;10.174;2022-08-19T00:53:03;27.20;50.30
3504;DHT22;1766;53.490;10.174;2022-08-19T00:55:07;27.10;50.30
3504;DHT22;1766;53.490;10.174;2022-08-19T00:57:16;27.10;50.40
3504;DHT22;1766;53.490;10.174;2022-08-19T00:59:20;27.00;50.40
3504;DHT22;1766;53.490;10.174;2022-08-19T01:01:22;27.00;50.50
3504;DHT22;1766;53.490;10.174;2022-08-19T01:03:24;27.10;50.60
3504;DHT22;1766;53.490;10.174;2022-08-19T01:05:27;27.00;50.60
3504;DHT22;1766;53.490;10.174;2022-08-19T01:07:30;27.00;50.70
3504;DHT22;1766;53.490;10.174;2022-08-19T01:09:32;27.00;50.60
3504;DHT22;1766;53.490;10.174;2022-08-19T01:11:38;27.00;50.90
3504;DHT22;1766;53.490;10.174;2022-08-19T01:13:42;27.00;50.90
3504;DHT22;1766;53.490;10.174;2022-08-19T01:15:48;27.00;50.90
3504;DHT22;1766;53.490;10.174;2022-08-19T01:17:53;27.00;51.00
3504;DHT22;1766;53.490;10.174;2022-08-19T01:19:55;27.00;51.10
3504;DHT22;1766;53.490;10.174;2022-08-19T01:22:01;26.90;51.10
3504;DHT22;1766;53.490;10.174;2022-08-19T01:24:06;26.90;51.30
3504;DHT22;1766;53.490;10.174;2022-08-19T01:26:10;27.00;51.20
3504;DHT22;1766;53.490;10.174;2022-08-19T01:28:17;26.90;51.40
3504;DHT22;1766;53.490;10.174;2022-08-19T01:30:24;26.90;51.50
3504;DHT22;1766;53.490;10.174;2022-08-19T01:32:27;27.00;51.60
3504;DHT22;1766;53.490;10.174;2022-08-19T01:34:30;26.90;51.40
3504;DHT22;1766;53.490;10.174;2022-08-19T01:36:37;26.90;51.60
3504;DHT22;1766;53.490;10.174;2022-08-19T01:38:43;26.90;51.60
3504;DHT22;1766;53.490;10.174;2022-08-19T01:40:46;27.00;51.80
3504;DHT22;1766;53.490;10.174;2022-08-19T01:42:49;27.00;51.70
3504;DHT22;1766;53.490;10.174;2022-08-19T01:44:51;27.00;51.80
3504;DHT22;1766;53.490;10.174;2022-08-19T01:46:53;27.00;51.80
3504;DHT22;1766;53.490;10.174;2022-08-19T01:48:55;27.10;51.90
3504;DHT22;1766;53.490;10.174;2022-08-19T01:50:57;27.00;52.00
3504;DHT22;1766;53.490;10.174;2022-08-19T01:53:00;27.00;51.90
3504;DHT22;1766;53.490;10.174;2022-08-19T01:55:05;27.00;52.00
3504;DHT22;1766;53.490;10.174;2022-08-19T01:57:13;27.00;52.10
3504;DHT22;1766;53.490;10.174;2022-08-19T01:59:17;27.00;52.10
3504;DHT22;1766;53.490;10.174;2022-08-19T02:01:20;27.00;52.10
3504;DHT22;1766;53.490;10.174;2022-08-19T02:03:23;27.00;52.00
3504;DHT22;1766;53.490;10.174;2022-08-19T02:05:25;27.00;52.10
3504;DHT22;1766;53.490;10.174;2022-08-19T02:07:29;27.00;52.00
3504;DHT22;1766;53.490;10.174;2022-08-19T02:09:33;26.90;52.00
3504;DHT22;1766;53.490;10.174;2022-08-19T02:11:36;26.90;52.00
3504;DHT22;1766;53.490;10.174;2022-08-19T02:13:39;26.90;52.00
3504;DHT22;1766;53.490;10.174;2022-08-19T02:15:41;26.90;51.90
3504;DHT22;1766;53.490;10.174;2022-08-19T02:17:43;26.90;52.00
3504;DHT22;1766;53.490;10.174;2022-08-19T02:19:45;26.80;52.00
3504;DHT22;1766;53.490;10.174;2022-08-19T02:21:49;26.80;52.00
3504;DHT22;1766;53.490;10.174;2022-08-19T02:23:51;26.70;52.00
3504;DHT22;1766;53.490;10.174;2022-08-19T02:25:52;26.70;52.10
3504;DHT22;1766;53.490;10.174;2022-08-19T02:27:54;26.70;52.20
3504;DHT22;1766;53.490;10.174;2022-08-19T02:29:57;26.80;52.30
3504;DHT22;1766;53.490;10.174;2022-08-19T02:31:59;26.70;52.30
3504;DHT22;1766;53.490;10.174;2022-08-19T02:34:01;26.80;52.40
3504;DHT22;1766;53.490;10.174;2022-08-19T02:36:04;26.80;52.40
3504;DHT22;1766;53.490;10.174;2022-08-19T02:38:06;26.70;52.40
3504;DHT22;1766;53.490;10.174;2022-08-19T02:40:22;26.70;52.40
3504;DHT22;1766;53.490;10.174;2022-08-19T02:42:25;26.80;52.40
3504;DHT22;1766;53.490;10.174;2022-08-19T02:44:27;26.40;52.40
3504;DHT22;1766;53.490;10.174;2022-08-19T02:46:32;26.80;52.70
3504;DHT22;1766;53.490;10.174;2022-08-19T02:48:34;26.70;52.70
3504;DHT22;1766;53.490;10.174;2022-08-19T02:50:37;26.70;52.70
3504;DHT22;1766;53.490;10.174;2022-08-19T02:52:40;26.70;52.80
3504;DHT22;1766;53.490;10.174;2022-08-19T02:54:42;26.80;52.70
3504;DHT22;1766;53.490;10.174;2022-08-19T02:56:44;26.90;53.40
3504;DHT22;1766;53.490;10.174;2022-08-19T02:58:47;26.90;52.80
3504;DHT22;1766;53.490;10.174;2022-08-19T03:00:52;26.90;52.80
3504;DHT22;1766;53.490;10.174;2022-08-19T03:02:56;26.90;52.80
3504;DHT22;1766;53.490;10.174;2022-08-19T03:04:59;27.00;52.70
3504;DHT22;1766;53.490;10.174;2022-08-19T03:07:02;26.90;52.70
3504;DHT22;1766;53.490;10.174;2022-08-19T03:09:04;26.90;52.70
3504;DHT22;1766;53.490;10.174;2022-08-19T03:11:06;26.90;52.70
3504;DHT22;1766;53.490;10.174;2022-08-19T03:13:14;26.90;52.80
3504;DHT22;1766;53.490;10.174;2022-08-19T03:15:20;26.90;52.70
3504;DHT22;1766;53.490;10.174;2022-08-19T03:17:22;26.90;52.60
3504;DHT22;1766;53.490;10.174;2022-08-19T03:19:25;26.80;52.60
3504;DHT22;1766;53.490;10.174;2022-08-19T03:21:31;26.90;52.70
3504;DHT22;1766;53.490;10.174;2022-08-19T03:23:34;26.90;52.70
3504;DHT22;1766;53.490;10.174;2022-08-19T03:25:38;26.90;53.20
3504;DHT22;1766;53.490;10.174;2022-08-19T03:27:42;26.90;52.70
3504;DHT22;1766;53.490;10.174;2022-08-19T03:29:44;26.90;52.40
3504;DHT22;1766;53.490;10.174;2022-08-19T03:31:46;26.90;52.50
3504;DHT22;1766;53.490;10.174;2022-08-19T03:33:48;26.80;52.60
3504;DHT22;1766;53.490;10.174;2022-08-19T03:36:08;26.90;52.70
3504;DHT22;1766;53.490;10.174;2022-08-19T03:38:11;26.80;52.60
3504;DHT22;1766;53.490;10.174;2022-08-19T03:40:13;26.90;52.60
3504;DHT22;1766;53.490;10.174;2022-08-19T03:42:15;26.80;52.70
3504;DHT22;1766;53.490;10.174;2022-08-19T03:44:21;26.80;52.70
3504;DHT22;1766;53.490;10.174;2022-08-19T03:46:25;26.80;52.80
3504;DHT22;1766;53.490;10.174;2022-08-19T03:48:30;26.80;52.80
3504;DHT22;1766;53.490;10.174;2022-08-19T03:50:33;26.90;52.90
3504;DHT22;1766;53.490;10.174;2022-08-19T03:52:41;26.80;53.40
3504;DHT22;1766;53.490;10.174;2022-08-19T03:54:43;26.80;52.70
3504;DHT22;1766;53.490;10.174;2022-08-19T03:56:47;26.80;52.90
3504;DHT22;1766;53.490;10.174;2022-08-19T03:58:49;26.80;53.00
3504;DHT22;1766;53.490;10.174;2022-08-19T04:00:51;26.80;53.00
3504;DHT22;1766;53.490;10.174;2022-08-19T04:02:53;26.90;53.00
3504;DHT22;1766;53.490;10.174;2022-08-19T04:04:55;26.80;53.00
3504;DHT22;1766;53.490;10.174;2022-08-19T04:06:57;26.80;53.00
3504;DHT22;1766;53.490;10.174;2022-08-19T04:09:03;26.80;53.00
3504;DHT22;1766;53.490;10.174;2022-08-19T04:11:07;26.80;53.10
3504;DHT22;1766;53.490;10.174;2022-08-19T04:13:11;26.90;53.10
3504;DHT22;1766;53.490;10.174;2022-08-19T04:15:13;26.80;52.90
3504;DHT22;1766;53.490;10.174;2022-08-19T04:17:15;26.80;52.90
3504;DHT22;1766;53.490;10.174;2022-08-19T04:19:18;26.80;53.10
3504;DHT22;1766;53.490;10.174;2022-08-19T04:21:23;26.80;53.70
3504;DHT22;1766;53.490;10.174;2022-08-19T04:23:26;26.80;53.20
3504;DHT22;1766;53.490;10.174;2022-08-19T04:25:35;26.80;53.10
3504;DHT22;1766;53.490;10.174;2022-08-19T04:27:38;26.70;53.20
3504;DHT22;1766;53.490;10.174;2022-08-19T04:29:46;26.80;53.10
3504;DHT22;1766;53.490;10.174;2022-08-19T04:31:49;26.80;53.10
3504;DHT22;1766;53.490;10.174;2022-08-19T04:33:51;26.90;53.10
3504;DHT22;1766;53.490;10.174;2022-08-19T04:35:53;26.80;53.10
3504;DHT22;1766;53.490;10.174;2022-08-19T04:37:54;26.90;53.10
3504;DHT22;1766;53.490;10.174;2022-08-19T04:39:56;26.90;53.10
3504;DHT22;1766;53.490;10.174;2022-08-19T04:42:14;26.90;53.00
3504;DHT22;1766;53.490;10.174;2022-08-19T04:44:32;27.00;53.20
3504;DHT22;1766;53.490;10.174;2022-08-19T04:46:34;26.90;53.00
3504;DHT22;1766;53.490;10.174;2022-08-19T04:48:36;27.00;53.20
3504;DHT22;1766;53.490;10.174;2022-08-19T04:50:42;26.90;53.20
3504;DHT22;1766;53.490;10.174;2022-08-19T04:52:44;26.90;53.20
3504;DHT22;1766;53.490;10.174;2022-08-19T04:54:46;26.90;53.20
3504;DHT22;1766;53.490;10.174;2022-08-19T04:56:48;26.90;53.10
3504;DHT22;1766;53.490;10.174;2022-08-19T04:58:53;26.90;53.30
3504;DHT22;1766;53.490;10.174;2022-08-19T05:00:56;26.80;53.20
3504;DHT22;1766;53.490;10.174;2022-08-19T05:03:00;26.90;53.00
3504;DHT22;1766;53.490;10.174;2022-08-19T05:05:03;26.90;53.10
3504;DHT22;1766;53.490;10.174;2022-08-19T05:07:08;26.90;53.30
3504;DHT22;1766;53.490;10.174;2022-08-19T05:09:11;26.80;53.20
3504;DHT22;1766;53.490;10.174;2022-08-19T05:11:15;26.80;53.10
3504;DHT22;1766;53.490;10.174;2022-08-19T05:13:19;26.80;53.20
3504;DHT22;1766;53.490;10.174;2022-08-19T05:15:22;26.80;53.20
3504;DHT22;1766;53.490;10.174;2022-08-19T05:17:24;26.70;53.10
3504;DHT22;1766;53.490;10.174;2022-08-19T05:19:26;26.70;53.20
3504;DHT22;1766;53.490;10.174;2022-08-19T05:21:43;26.70;53.20
3504;DHT22;1766;53.490;10.174;2022-08-19T05:23:59;26.70;53.40
3504;DHT22;1766;53.490;10.174;2022-08-19T05:26:01;26.70;53.20
3504;DHT22;1766;53.490;10.174;2022-08-19T05:28:03;26.70;53.50
3504;DHT22;1766;53.490;10.174;2022-08-19T05:30:05;26.70;53.50
3504;DHT22;1766;53.490;10.174;2022-08-19T05:32:09;26.70;53.70
3504;DHT22;1766;53.490;10.174;2022-08-19T05:34:12;26.70;53.70
3504;DHT22;1766;53.490;10.174;2022-08-19T05:36:14;26.70;53.70
3504;DHT22;1766;53.490;10.174;2022-08-19T05:38:16;26.70;53.70
3504;DHT22;1766;53.490;10.174;2022-08-19T05:40:18;26.70;53.80
3504;DHT22;1766;53.490;10.174;2022-08-19T05:42:20;26.70;53.70
3504;DHT22;1766;53.490;10.174;2022-08-19T05:44:24;26.70;53.90
3504;DHT22;1766;53.490;10.174;2022-08-19T05:46:27;26.70;53.90
3504;DHT22;1766;53.490;10.174;2022-08-19T05:48:30;26.70;54.40
3504;DHT22;1766;53.490;10.174;2022-08-19T05:50:31;26.70;53.80
3504;DHT22;1766;53.490;10.174;2022-08-19T05:52:33;26.80;53.90
3504;DHT22;1766;53.490;10.174;2022-08-19T05:54:39;26.70;53.80
3504;DHT22;1766;53.490;10.174;2022-08-19T05:56:42;26.70;54.00
3504;DHT22;1766;53.490;10.174;2022-08-19T05:58:47;26.80;54.10
3504;DHT22;1766;53.490;10.174;2022-08-19T06:00:49;26.80;53.90
3504;DHT22;1766;53.490;10.174;2022-08-19T06:02:51;26.80;53.90
3504;DHT22;1766;53.490;10.174;2022-08-19T06:04:56;26.80;54.00
3504;DHT22;1766;53.490;10.174;2022-08-19T06:06:57;26.80;54.00
3504;DHT22;1766;53.490;10.174;2022-08-19T06:08:59;26.80;54.00
3504;DHT22;1766;53.490;10.174;2022-08-19T06:11:18;26.80;54.00
3504;DHT22;1766;53.490;10.174;2022-08-19T06:13:22;26.80;54.10
3504;DHT22;1766;53.490;10.174;2022-08-19T06:15:26;26.90;53.90
3504;DHT22;1766;53.490;10.174;2022-08-19T06:17:29;26.80;53.70
3504;DHT22;1766;53.490;10.174;2022-08-19T06:19:31;26.80;53.80
3504;DHT22;1766;53.490;10.174;2022-08-19T06:21:36;26.80;53.80
3504;DHT22;1766;53.490;10.174;2022-08-19T06:23:38;26.80;54.00
3504;DHT22;1766;53.490;10.174;2022-08-19T06:25:40;26.80;53.70
3504;DHT22;1766;53.490;10.174;2022-08-19T06:27:42;26.80;53.80
3504;DHT22;1766;53.490;10.174;2022-08-19T06:29:44;26.80;53.90
3504;DHT22;1766;53.490;10.174;2022-08-19T06:31:49;26.80;53.80
3504;DHT22;1766;53.490;10.174;2022-08-19T06:33:52;26.90;53.90
3504;DHT22;1766;53.490;10.174;2022-08-19T06:35:54;26.90;53.90
3504;DHT22;1766;53.490;10.174;2022-08-19T06:37:59;26.90;53.90
3504;DHT22;1766;53.490;10.174;2022-08-19T06:40:05;26.90;53.70
3504;DHT22;1766;53.490;10.174;2022-08-19T06:42:10;26.90;53.90
3504;DHT22;1766;53.490;10.174;2022-08-19T06:44:14;26.90;53.90
3504;DHT22;1766;53.490;10.174;2022-08-19T06:46:17;27.00;53.80
3504;DHT22;1766;53.490;10.174;2022-08-19T06:48:20;27.00;53.70
3504;DHT22;1766;53.490;10.174;2022-08-19T06:50:22;27.00;53.50
3504;DHT22;1766;53.490;10.174;2022-08-19T06:52:24;27.00;53.60
3504;DHT22;1766;53.490;10.174;2022-08-19T06:54:27;27.10;53.40
3504;DHT22;1766;53.490;10.174;2022-08-19T06:56:31;27.10;53.40
3504;DHT22;1766;53.490;10.174;2022-08-19T06:58:35;27.10;53.40
3504;DHT22;1766;53.490;10.174;2022-08-19T07:00:37;27.20;53.30
3504;DHT22;1766;53.490;10.174;2022-08-19T07:02:39;27.20;53.30
3504;DHT22;1766;53.490;10.174;2022-08-19T07:04:41;27.20;53.40
3504;DHT22;1766;53.490;10.174;2022-08-19T07:06:44;27.20;53.20
3504;DHT22;1766;53.490;10.174;2022-08-19T07:08:47;27.30;53.30
3504;DHT22;1766;53.490;10.174;2022-08-19T07:10:50;27.30;53.30
3504;DHT22;1766;53.490;10.174;2022-08-19T07:12:52;27.40;53.20
3504;DHT22;1766;53.490;10.174;2022-08-19T07:14:54;27.50;53.20
3504;DHT22;1766;53.490;10.174;2022-08-19T07:16:56;27.60;52.90
3504;DHT22;1766;53.490;10.174;2022-08-19T07:18:58;27.60;52.80
3504;DHT22;1766;53.490;10.174;2022-08-19T07:21:04;27.60;52.60
3504;DHT22;1766;53.490;10.174;2022-08-19T07:23:08;27.60;52.60
3504;DHT22;1766;53.490;10.174;2022-08-19T07:25:10;27.60;52.50
3504;DHT22;1766;53.490;10.174;2022-08-19T07:27:14;27.60;52.50
3504;DHT22;1766;53.490;10.174;2022-08-19T07:29:18;27.60;52.30
3504;DHT22;1766;53.490;10.174;2022-08-19T07:31:25;27.70;52.40
3504;DHT22;1766;53.490;10.174;2022-08-19T07:33:28;27.80;52.40
3504;DHT22;1766;53.490;10.174;2022-08-19T07:35:32;27.80;52.10
3504;DHT22;1766;53.490;10.174;2022-08-19T07:37:34;27.80;51.90
3504;DHT22;1766;53.490;10.174;2022-08-19T07:39:37;27.80;51.90
3504;DHT22;1766;53.490;10.174;2022-08-19T07:41:40;27.90;51.90
3504;DHT22;1766;53.490;10.174;2022-08-19T07:43:44;28.00;51.80
3504;DHT22;1766;53.490;10.174;2022-08-19T07:45:46;28.00;51.60
3504;DHT22;1766;53.490;10.174;2022-08-19T07:47:48;28.10;51.40
3504;DHT22;1766;53.490;10.174;2022-08-19T07:49:50;28.10;51.30
3504;DHT22;1766;53.490;10.174;2022-08-19T07:51:53;28.10;51.10
3504;DHT22;1766;53.490;10.174;2022-08-19T07:53:56;28.00;51.10
3504;DHT22;1766;53.490;10.174;2022-08-19T07:55:58;28.10;51.10
3504;DHT22;1766;53.490;10.174;2022-08-19T07:58:04;28.10;50.90
3504;DHT22;1766;53.490;10.174;2022-08-19T08:00:08;28.10;50.80
3504;DHT22;1766;53.490;10.174;2022-08-19T08:02:10;28.10;50.70
3504;DHT22;1766;53.490;10.174;2022-08-19T08:04:13;28.00;50.50
3504;DHT22;1766;53.490;10.174;2022-08-19T08:06:29;27.90;50.60
3504;DHT22;1766;53.490;10.174;2022-08-19T08:08:44;28.00;50.60
3504;DHT22;1766;53.490;10.174;2022-08-19T08:11:00;28.10;50.70
3504;DHT22;1766;53.490;10.174;2022-08-19T08:13:02;28.00;50.50
3504;DHT22;1766;53.490;10.174;2022-08-19T08:15:10;27.90;50.40
3504;DHT22;1766;53.490;10.174;2022-08-19T08:17:18;27.90;50.60
3504;DHT22;1766;53.490;10.174;2022-08-19T08:19:22;27.80;50.50
3504;DHT22;1766;53.490;10.174;2022-08-19T08:21:25;27.90;50.70
3504;DHT22;1766;53.490;10.174;2022-08-19T08:23:27;27.80;50.60
3504;DHT22;1766;53.490;10.174;2022-08-19T08:25:30;27.80;50.70
3504;DHT22;1766;53.490;10.174;2022-08-19T08:27:35;27.80;50.80
3504;DHT22;1766;53.490;10.174;2022-08-19T08:29:39;27.70;50.70
3504;DHT22;1766;53.490;10.174;2022-08-19T08:31:43;27.70;50.70
3504;DHT22;1766;53.490;10.174;2022-08-19T08:33:46;27.70;51.00
3504;DHT22;1766;53.490;10.174;2022-08-19T08:35:48;27.80;51.10
3504;DHT22;1766;53.490;10.174;2022-08-19T08:37:52;27.80;51.10
3504;DHT22;1766;53.490;10.174;2022-08-19T08:39:55;27.80;50.90
3504;DHT22;1766;53.490;10.174;2022-08-19T08:42:01;27.80;50.80
3504;DHT22;1766;53.490;10.174;2022-08-19T08:44:15;27.80;50.90
3504;DHT22;1766;53.490;10.174;2022-08-19T08:46:23;27.90;50.90
3504;DHT22;1766;53.490;10.174;2022-08-19T08:48:36;27.90;50.90
3504;DHT22;1766;53.490;10.174;2022-08-19T08:50:43;28.00;51.00
3504;DHT22;1766;53.490;10.174;2022-08-19T08:52:50;28.20;50.70
3504;DHT22;1766;53.490;10.174;2022-08-19T08:54:57;28.00;50.60
3504;DHT22;1766;53.490;10.174;2022-08-19T08:57:05;28.10;50.70
3504;DHT22;1766;53.490;10.174;2022-08-19T08:59:21;27.90;50.60
3504;DHT22;1766;53.490;10.174;2022-08-19T09:01:25;27.90;50.60
3504;DHT22;1766;53.490;10.174;2022-08-19T09:03:29;28.00;50.60
3504;DHT22;1766;53.490;10.174;2022-08-19T09:05:39;27.90;50.40
3504;DHT22;1766;53.490;10.174;2022-08-19T09:07:49;27.90;50.40
3504;DHT22;1766;53.490;10.174;2022-08-19T09:10:04;27.90;50.40
3504;DHT22;1766;53.490;10.174;2022-08-19T09:12:17;27.90;50.50
3504;DHT22;1766;53.490;10.174;2022-08-19T09:14:34;27.90;50.40
3504;DHT22;1766;53.490;10.174;2022-08-19T09:16:38;27.80;50.50
3504;DHT22;1766;53.490;10.174;2022-08-19T09:18:44;27.80;50.40
3504;DHT22;1766;53.490;10.174;2022-08-19T09:20:47;27.80;50.50
3504;DHT22;1766;53.490;10.174;2022-08-19T09:22:49;27.90;50.40
3504;DHT22;1766;53.490;10.174;2022-08-19T09:24:51;27.90;50.50
3504;DHT22;1766;53.490;10.174;2022-08-19T09:26:53;27.90;50.30
3504;DHT22;1766;53.490;10.174;2022-08-19T09:28:55;27.90;50.40
3504;DHT22;1766;53.490;10.174;2022-08-19T09:30:58;28.10;50.50
3504;DHT22;1766;53.490;10.174;2022-08-19T09:33:01;28.00;50.40
3504;DHT22;1766;53.490;10.174;2022-08-19T09:35:04;28.00;50.80
3504;DHT22;1766;53.490;10.174;2022-08-19T09:37:06;28.00;50.40
3504;DHT22;1766;53.490;10.174;2022-08-19T09:39:08;28.00;50.40
3504;DHT22;1766;53.490;10.174;2022-08-19T09:41:13;28.00;50.20
3504;DHT22;1766;53.490;10.174;2022-08-19T09:43:16;28.00;50.40
3504;DHT22;1766;53.490;10.174;2022-08-19T09:45:20;28.00;50.90
3504;DHT22;1766;53.490;10.174;2022-08-19T09:47:22;28.10;50.50
3504;DHT22;1766;53.490;10.174;2022-08-19T09:49:24;28.10;50.30
3504;DHT22;1766;53.490;10.174;2022-08-19T09:51:40;28.10;50.30
3504;DHT22;1766;53.490;10.174;2022-08-19T09:53:43;28.20;50.20
3504;DHT22;1766;53.490;10.174;2022-08-19T09:55:46;28.20;50.30
3504;DHT22;1766;53.490;10.174;2022-08-19T09:57:47;28.20;50.20
3504;DHT22;1766;53.490;10.174;2022-08-19T09:59:49;28.20;50.20
3504;DHT22;1766;53.490;10.174;2022-08-19T10:01:51;28.20;50.30
3504;DHT22;1766;53.490;10.174;2022-08-19T10:03:55;28.30;50.30
3504;DHT22;1766;53.490;10.174;2022-08-19T10:06:00;28.40;50.40
3504;DHT22;1766;53.490;10.174;2022-08-19T10:08:05;28.50;50.10
3504;DHT22;1766;53.490;10.174;2022-08-19T10:10:07;28.40;49.90
3504;DHT22;1766;53.490;10.174;2022-08-19T10:12:11;28.40;49.90
3504;DHT22;1766;53.490;10.174;2022-08-19T10:14:12;28.40;49.90
3504;DHT22;1766;53.490;10.174;2022-08-19T10:16:18;28.30;49.80
3504;DHT22;1766;53.490;10.174;2022-08-19T10:18:23;28.40;49.90
3504;DHT22;1766;53.490;10.174;2022-08-19T10:20:25;28.30;49.80
3504;DHT22;1766;53.490;10.174;2022-08-19T10:22:27;28.40;50.30
3504;DHT22;1766;53.490;10.174;2022-08-19T10:24:30;28.40;49.80
3504;DHT22;1766;53.490;10.174;2022-08-19T10:26:35;28.30;49.80
3504;DHT22;1766;53.490;10.174;2022-08-19T10:28:42;28.30;49.90
3504;DHT22;1766;53.490;10.174;2022-08-19T10:30:43;28.20;49.80
3504;DHT22;1766;53.490;10.174;2022-08-19T10:32:45;28.20;50.00
3504;DHT22;1766;53.490;10.174;2022-08-19T10:34:47;28.20;50.00
3504;DHT22;1766;53.490;10.174;2022-08-19T10:36:52;28.20;50.00
3504;DHT22;1766;53.490;10.174;2022-08-19T10:38:56;28.30;50.10
3504;DHT22;1766;53.490;10.174;2022-08-19T10:41:08;28.20;50.00
3504;DHT22;1766;53.490;10.174;2022-08-19T10:43:11;28.30;50.00
3504;DHT22;1766;53.490;10.174;2022-08-19T10:45:13;28.40;49.80
3504;DHT22;1766;53.490;10.174;2022-08-19T10:47:14;28.20;49.60
3504;DHT22;1766;53.490;10.174;2022-08-19T10:49:16;28.50;50.00
3504;DHT22;1766;53.490;10.174;2022-08-19T10:51:20;28.40;49.90
3504;DHT22;1766;53.490;10.174;2022-08-19T10:53:36;28.40;49.90
3504;DHT22;1766;53.490;10.174;2022-08-19T10:55:38;28.40;49.70
3504;DHT22;1766;53.490;10.174;2022-08-19T10:57:55;28.50;49.80
3504;DHT22;1766;53.490;10.174;2022-08-19T10:59:57;28.50;49.50
3504;DHT22;1766;53.490;10.174;2022-08-19T11:02:01;28.40;49.50
3504;DHT22;1766;53.490;10.174;2022-08-19T11:04:04;28.40;49.70
3504;DHT22;1766;53.490;10.174;2022-08-19T11:06:09;28.40;49.90
3504;DHT22;1766;53.490;10.174;2022-08-19T11:08:11;28.40;49.70
3504;DHT22;1766;53.490;10.174;2022-08-19T11:10:13;28.50;49.70
3504;DHT22;1766;53.490;10.174;2022-08-19T11:12:19;28.50;49.80
3504;DHT22;1766;53.490;10.174;2022-08-19T11:14:23;28.50;49.40
3504;DHT22;1766;53.490;10.174;2022-08-19T11:16:26;28.40;49.60
3504;DHT22;1766;53.490;10.174;2022-08-19T11:18:30;28.40;49.60
3504;DHT22;1766;53.490;10.174;2022-08-19T11:20:32;28.50;49.70
3504;DHT22;1766;53.490;10.174;2022-08-19T11:22:33;28.50;49.60
3504;DHT22;1766;53.490;10.174;2022-08-19T11:24:36;28.50;49.70
3504;DHT22;1766;53.490;10.174;2022-08-19T11:26:39;28.70;49.70
3504;DHT22;1766;53.490;10.174;2022-08-19T11:28:41;28.50;49.60
3504;DHT22;1766;53.490;10.174;2022-08-19T11:30:45;28.50;49.60
3504;DHT22;1766;53.490;10.174;2022-08-19T11:32:47;28.70;49.90
3504;DHT22;1766;53.490;10.174;2022-08-19T11:34:48;28.60;49.80
3504;DHT22;1766;53.490;10.174;2022-08-19T11:36:51;28.60;49.80
3504;DHT22;1766;53.490;10.174;2022-08-19T11:38:53;28.70;49.90
3504;DHT22;1766;53.490;10.174;2022-08-19T11:40:57;28.60;49.90
3504;DHT22;1766;53.490;10.174;2022-08-19T11:43:00;28.70;49.90
3504;DHT22;1766;53.490;10.174;2022-08-19T11:45:02;28.70;49.80
3504;DHT22;1766;53.490;10.174;2022-08-19T11:47:06;28.80;49.90
3504;DHT22;1766;53.490;10.174;2022-08-19T11:49:08;28.90;49.80
3504;DHT22;1766;53.490;10.174;2022-08-19T11:51:22;28.90;50.00
3504;DHT22;1766;53.490;10.174;2022-08-19T11:53:25;29.00;50.00
3504;DHT22;1766;53.490;10.174;2022-08-19T11:55:27;29.10;49.80
3504;DHT22;1766;53.490;10.174;2022-08-19T11:57:29;29.10;49.50
3504;DHT22;1766;53.490;10.174;2022-08-19T11:59:31;29.10;49.40
3504;DHT22;1766;53.490;10.174;2022-08-19T12:01:34;29.10;49.30
3504;DHT22;1766;53.490;10.174;2022-08-19T12:03:43;29.10;48.90
3504;DHT22;1766;53.490;10.174;2022-08-19T12:05:46;29.20;49.20
3504;DHT22;1766;53.490;10.174;2022-08-19T12:07:49;29.30;49.40
3504;DHT22;1766;53.490;10.174;2022-08-19T12:09:51;29.40;49.20
3504;DHT22;1766;53.490;10.174;2022-08-19T12:11:52;29.50;49.00
3504;DHT22;1766;53.490;10.174;2022-08-19T12:13:54;29.70;48.90
3504;DHT22;1766;53.490;10.174;2022-08-19T12:15:57;29.80;48.60
3504;DHT22;1766;53.490;10.174;2022-08-19T12:17:59;29.90;48.50
3504;DHT22;1766;53.490;10.174;2022-08-19T12:20:03;29.90;47.90
3504;DHT22;1766;53.490;10.174;2022-08-19T12:22:06;29.90;47.90
3504;DHT22;1766;53.490;10.174;2022-08-19T12:24:08;29.80;47.60
3504;DHT22;1766;53.490;10.174;2022-08-19T12:26:11;29.90;47.70
3504;DHT22;1766;53.490;10.174;2022-08-19T12:28:13;29.80;47.60
3504;DHT22;1766;53.490;10.174;2022-08-19T12:30:15;29.90;47.30
3504;DHT22;1766;53.490;10.174;2022-08-19T12:32:17;29.90;47.20
3504;DHT22;1766;53.490;10.174;2022-08-19T12:34:19;29.90;47.40
3504;DHT22;1766;53.490;10.174;2022-08-19T12:36:42;29.90;47.30
3504;DHT22;1766;53.490;10.174;2022-08-19T12:38:44;30.00;47.10
3504;DHT22;1766;53.490;10.174;2022-08-19T12:40:48;30.00;47.10
3504;DHT22;1766;53.490;10.174;2022-08-19T12:42:52;30.00;46.90
3504;DHT22;1766;53.490;10.174;2022-08-19T12:44:54;30.10;46.90
3504;DHT22;1766;53.490;10.174;2022-08-19T12:46:58;30.00;46.80
3504;DHT22;1766;53.490;10.174;2022-08-19T12:49:00;30.20;46.90
3504;DHT22;1766;53.490;10.174;2022-08-19T12:51:06;30.10;46.60
3504;DHT22;1766;53.490;10.174;2022-08-19T12:53:11;30.20;46.60
3504;DHT22;1766;53.490;10.174;2022-08-19T12:55:13;30.30;46.70
3504;DHT22;1766;53.490;10.174;2022-08-19T12:57:15;30.50;46.80
3504;DHT22;1766;53.490;10.174;2022-08-19T12:59:17;30.80;46.60
3504;DHT22;1766;53.490;10.174;2022-08-19T13:01:19;30.90;45.90
3504;DHT22;1766;53.490;10.174;2022-08-19T13:03:22;31.10;46.00
3504;DHT22;1766;53.490;10.174;2022-08-19T13:05:32;31.10;45.40
3504;DHT22;1766;53.490;10.174;2022-08-19T13:07:35;31.30;45.30
3504;DHT22;1766;53.490;10.174;2022-08-19T13:09:38;31.30;45.00
3504;DHT22;1766;53.490;10.174;2022-08-19T13:11:42;31.40;44.80
3504;DHT22;1766;53.490;10.174;2022-08-19T13:13:47;31.50;44.60
3504;DHT22;1766;53.490;10.174;2022-08-19T13:15:50;31.70;44.30